sensor_id;sensor_type;location;lat;lon;timestamp;P1;durP1;ratioP1;P2;durP2;ratioP2
37847;SDS011;23688;33.130;-117.188;2022-12-15T00:02:05;13.52;;;5.63;;
37847;SDS011;23688;33.130;-117.188;2022-12-15T00:04:50;12.80;;;6.15;;
37847;SDS011;23688;33.130;-117.188;2022-12-15T00:07:34;20.40;;;7.05;;
37847;SDS011;23688;33.130;-117.188;2022-12-15T00:10:20;15.10;;;6.78;;
37847;SDS011;23688;33.130;-117.188;2022-12-15T00:13:11;26.67;;;7.95;;
37847;SDS011;23688;33.130;-117.188;2022-12-15T00:15:56;15.18;;;7.45;;
37847;SDS011;23688;33.130;-117.188;2022-12-15T00:18:41;10.55;;;5.60;;
37847;SDS011;23688;33.130;-117.188;2022-12-15T00:21:25;16.30;;;6.70;;
37847;SDS011;23688;33.130;-117.188;2022-12-15T00:24:10;14.93;;;7.18;;
37847;SDS011;23688;33.130;-117.188;2022-12-15T00:26:54;15.35;;;7.20;;
37847;SDS011;23688;33.130;-117.188;2022-12-15T00:29:39;20.05;;;7.07;;
37847;SDS011;23688;33.130;-117.188;2022-12-15T00:32:23;14.55;;;6.47;;
37847;SDS011;23688;33.130;-117.188;2022-12-15T00:35:08;12.32;;;6.18;;
37847;SDS011;23688;33.130;-117.188;2022-12-15T00:37:53;17.60;;;7.65;;
37847;SDS011;23688;33.130;-117.188;2022-12-15T00:40:38;13.65;;;6.95;;
37847;SDS011;23688;33.130;-117.188;2022-12-15T00:43:07;19.52;;;7.13;;
37847;SDS011;23688;33.130;-117.188;2022-12-15T00:45:36;12.85;;;6.80;;
37847;SDS011;23688;33.130;-117.188;2022-12-15T00:48:21;15.50;;;7.72;;
37847;SDS011;23688;33.130;-117.188;2022-12-15T00:50:47;18.58;;;7.43;;
37847;SDS011;23688;33.130;-117.188;2022-12-15T00:53:16;18.85;;;7.30;;
37847;SDS011;23688;33.130;-117.188;2022-12-15T00:56:05;14.15;;;6.78;;
37847;SDS011;23688;33.130;-117.188;2022-12-15T00:58:50;14.75;;;7.30;;
37847;SDS011;23688;33.130;-117.188;2022-12-15T01:01:35;17.92;;;7.47;;
37847;SDS011;23688;33.130;-117.188;2022-12-15T01:04:21;14.00;;;7.15;;
37847;SDS011;23688;33.130;-117.188;2022-12-15T01:07:05;11.70;;;6.38;;
37847;SDS011;23688;33.130;-117.188;2022-12-15T01:09:50;16.50;;;6.57;;
37847;SDS011;23688;33.130;-117.188;2022-12-15T01:12:36;11.35;;;6.13;;
37847;SDS011;23688;33.130;-117.188;2022-12-15T01:15:20;14.00;;;6.40;;
37847;SDS011;23688;33.130;-117.188;2022-12-15T01:18:05;14.65;;;7.38;;
37847;SDS011;23688;33.130;-117.188;2022-12-15T01:20:56;16.25;;;6.88;;
37847;SDS011;23688;33.130;-117.188;2022-12-15T01:23:24;14.77;;;6.85;;
37847;SDS011;23688;33.130;-117.188;2022-12-15T01:25:51;15.20;;;7.70;;
37847;SDS011;23688;33.130;-117.188;2022-12-15T01:28:19;15.60;;;7.30;;
37847;SDS011;23688;33.130;-117.188;2022-12-15T01:30:46;13.85;;;6.80;;
37847;SDS011;23688;33.130;-117.188;2022-12-15T01:33:17;17.38;;;6.90;;
37847;SDS011;23688;33.130;-117.188;2022-12-15T01:35:44;13.73;;;6.75;;
37847;SDS011;23688;33.130;-117.188;2022-12-15T01:38:19;12.45;;;6.65;;
37847;SDS011;23688;33.130;-117.188;2022-12-15T01:40:49;14.05;;;6.63;;
37847;SDS011;23688;33.130;-117.188;2022-12-15T01:43:21;13.43;;;6.60;;
37847;SDS011;23688;33.130;-117.188;2022-12-15T01:48:26;14.02;;;8.07;;
37847;SDS011;23688;33.130;-117.188;2022-12-15T01:54:06;13.40;;;7.95;;
37847;SDS011;23688;33.130;-117.188;2022-12-15T01:56:41;20.27;;;8.50;;
37847;SDS011;23688;33.130;-117.188;2022-12-15T01:59:13;14.77;;;9.27;;
37847;SDS011;23688;33.130;-117.188;2022-12-15T02:01:47;15.63;;;8.30;;
37847;SDS011;23688;33.130;-117.188;2022-12-15T02:04:16;19.58;;;8.40;;
37847;SDS011;23688;33.130;-117.188;2022-12-15T02:06:48;17.45;;;7.50;;
37847;SDS011;23688;33.130;-117.188;2022-12-15T02:09:34;25.60;;;9.88;;
37847;SDS011;23688;33.130;-117.188;2022-12-15T02:23:25;20.95;;;6.80;;
37847;SDS011;23688;33.130;-117.188;2022-12-15T02:29:09;14.93;;;7.80;;
37847;SDS011;23688;33.130;-117.188;2022-12-15T02:31:47;14.30;;;7.25;;
37847;SDS011;23688;33.130;-117.188;2022-12-15T02:34:33;11.32;;;7.30;;
37847;SDS011;23688;33.130;-117.188;2022-12-15T02:39:42;13.88;;;7.57;;
37847;SDS011;23688;33.130;-117.188;2022-12-15T02:42:11;14.88;;;8.48;;
37847;SDS011;23688;33.130;-117.188;2022-12-15T02:50:15;15.43;;;8.30;;
37847;SDS011;23688;33.130;-117.188;2022-12-15T02:52:51;23.23;;;7.75;;
37847;SDS011;23688;33.130;-117.188;2022-12-15T02:58:29;14.00;;;7.57;;
37847;SDS011;23688;33.130;-117.188;2022-12-15T03:01:11;12.10;;;7.43;;
37847;SDS011;23688;33.130;-117.188;2022-12-15T03:03:45;15.73;;;7.60;;
37847;SDS011;23688;33.130;-117.188;2022-12-15T03:06:13;19.17;;;8.45;;
37847;SDS011;23688;33.130;-117.188;2022-12-15T03:08:40;13.02;;;8.52;;
37847;SDS011;23688;33.130;-117.188;2022-12-15T03:11:07;18.33;;;8.18;;
37847;SDS011;23688;33.130;-117.188;2022-12-15T03:13:33;15.30;;;8.35;;
37847;SDS011;23688;33.130;-117.188;2022-12-15T03:15:59;15.18;;;7.32;;
37847;SDS011;23688;33.130;-117.188;2022-12-15T03:18:28;13.55;;;7.90;;
37847;SDS011;23688;33.130;-117.188;2022-12-15T03:20:54;14.38;;;6.97;;
37847;SDS011;23688;33.130;-117.188;2022-12-15T03:23:20;13.15;;;6.85;;
37847;SDS011;23688;33.130;-117.188;2022-12-15T03:25:47;16.83;;;8.38;;
37847;SDS011;23688;33.130;-117.188;2022-12-15T03:28:14;20.55;;;10.93;;
37847;SDS011;23688;33.130;-117.188;2022-12-15T03:30:41;16.50;;;8.85;;
37847;SDS011;23688;33.130;-117.188;2022-12-15T03:33:07;24.58;;;8.57;;
37847;SDS011;23688;33.130;-117.188;2022-12-15T03:35:33;17.17;;;7.72;;
37847;SDS011;23688;33.130;-117.188;2022-12-15T03:38:00;11.10;;;7.82;;
37847;SDS011;23688;33.130;-117.188;2022-12-15T03:40:26;12.40;;;6.85;;
37847;SDS011;23688;33.130;-117.188;2022-12-15T03:42:53;12.63;;;8.18;;
37847;SDS011;23688;33.130;-117.188;2022-12-15T03:45:20;13.27;;;7.40;;
37847;SDS011;23688;33.130;-117.188;2022-12-15T03:47:49;17.58;;;8.82;;
37847;SDS011;23688;33.130;-117.188;2022-12-15T03:50:17;16.35;;;7.97;;
37847;SDS011;23688;33.130;-117.188;2022-12-15T03:52:49;15.65;;;8.25;;
37847;SDS011;23688;33.130;-117.188;2022-12-15T03:55:20;18.17;;;8.60;;
37847;SDS011;23688;33.130;-117.188;2022-12-15T03:57:47;15.30;;;7.88;;
37847;SDS011;23688;33.130;-117.188;2022-12-15T04:00:14;17.48;;;10.82;;
37847;SDS011;23688;33.130;-117.188;2022-12-15T04:02:43;22.08;;;9.20;;
37847;SDS011;23688;33.130;-117.188;2022-12-15T04:05:18;21.50;;;10.55;;
37847;SDS011;23688;33.130;-117.188;2022-12-15T04:07:47;21.00;;;10.05;;
37847;SDS011;23688;33.130;-117.188;2022-12-15T04:10:14;16.67;;;9.55;;
37847;SDS011;23688;33.130;-117.188;2022-12-15T04:12:40;27.73;;;12.45;;
37847;SDS011;23688;33.130;-117.188;2022-12-15T04:15:07;24.17;;;14.40;;
37847;SDS011;23688;33.130;-117.188;2022-12-15T04:17:34;24.67;;;14.00;;
37847;SDS011;23688;33.130;-117.188;2022-12-15T04:20:01;27.05;;;14.52;;
37847;SDS011;23688;33.130;-117.188;2022-12-15T04:22:38;24.25;;;14.30;;
37847;SDS011;23688;33.130;-117.188;2022-12-15T04:25:09;28.55;;;12.88;;
37847;SDS011;23688;33.130;-117.188;2022-12-15T04:28:01;20.98;;;10.52;;
37847;SDS011;23688;33.130;-117.188;2022-12-15T04:30:47;23.00;;;11.13;;
37847;SDS011;23688;33.130;-117.188;2022-12-15T04:33:57;22.02;;;11.18;;
37847;SDS011;23688;33.130;-117.188;2022-12-15T04:36:45;12.85;;;9.35;;
37847;SDS011;23688;33.130;-117.188;2022-12-15T04:39:36;24.05;;;11.45;;
37847;SDS011;23688;33.130;-117.188;2022-12-15T04:42:23;23.63;;;10.95;;
37847;SDS011;23688;33.130;-117.188;2022-12-15T04:45:08;27.77;;;12.48;;
37847;SDS011;23688;33.130;-117.188;2022-12-15T04:47:54;27.65;;;13.25;;
37847;SDS011;23688;33.130;-117.188;2022-12-15T04:50:38;19.80;;;9.90;;
37847;SDS011;23688;33.130;-117.188;2022-12-15T04:53:24;23.48;;;9.77;;
37847;SDS011;23688;33.130;-117.188;2022-12-15T04:56:10;19.90;;;9.70;;
37847;SDS011;23688;33.130;-117.188;2022-12-15T04:58:57;19.98;;;10.00;;
37847;SDS011;23688;33.130;-117.188;2022-12-15T05:01:42;19.42;;;9.73;;
37847;SDS011;23688;33.130;-117.188;2022-12-15T05:04:28;22.45;;;10.20;;
37847;SDS011;23688;33.130;-117.188;2022-12-15T05:07:13;23.73;;;11.70;;
37847;SDS011;23688;33.130;-117.188;2022-12-15T05:09:57;22.75;;;10.52;;
37847;SDS011;23688;33.130;-117.188;2022-12-15T05:12:42;21.05;;;8.70;;
37847;SDS011;23688;33.130;-117.188;2022-12-15T05:15:28;22.63;;;9.13;;
37847;SDS011;23688;33.130;-117.188;2022-12-15T05:18:13;24.38;;;8.65;;
37847;SDS011;23688;33.130;-117.188;2022-12-15T05:20:58;22.30;;;8.65;;
37847;SDS011;23688;33.130;-117.188;2022-12-15T05:23:42;22.85;;;10.93;;
37847;SDS011;23688;33.130;-117.188;2022-12-15T05:26:27;22.92;;;13.18;;
37847;SDS011;23688;33.130;-117.188;2022-12-15T05:29:12;25.35;;;10.73;;
37847;SDS011;23688;33.130;-117.188;2022-12-15T05:31:56;21.23;;;9.02;;
37847;SDS011;23688;33.130;-117.188;2022-12-15T05:34:24;21.38;;;9.50;;
37847;SDS011;23688;33.130;-117.188;2022-12-15T05:36:58;21.33;;;9.65;;
37847;SDS011;23688;33.130;-117.188;2022-12-15T05:39:27;19.50;;;9.60;;
37847;SDS011;23688;33.130;-117.188;2022-12-15T05:41:56;21.60;;;10.05;;
37847;SDS011;23688;33.130;-117.188;2022-12-15T05:44:23;23.55;;;10.23;;
37847;SDS011;23688;33.130;-117.188;2022-12-15T05:46:53;27.27;;;11.75;;
37847;SDS011;23688;33.130;-117.188;2022-12-15T05:49:19;21.92;;;11.73;;
37847;SDS011;23688;33.130;-117.188;2022-12-15T05:51:47;24.60;;;13.13;;
37847;SDS011;23688;33.130;-117.188;2022-12-15T05:54:15;22.85;;;10.52;;
37847;SDS011;23688;33.130;-117.188;2022-12-15T05:56:43;18.48;;;9.07;;
37847;SDS011;23688;33.130;-117.188;2022-12-15T05:59:10;29.25;;;12.68;;
37847;SDS011;23688;33.130;-117.188;2022-12-15T06:01:37;21.25;;;11.82;;
37847;SDS011;23688;33.130;-117.188;2022-12-15T06:04:03;22.65;;;9.75;;
37847;SDS011;23688;33.130;-117.188;2022-12-15T06:06:31;22.10;;;8.47;;
37847;SDS011;23688;33.130;-117.188;2022-12-15T06:09:00;19.20;;;8.20;;
37847;SDS011;23688;33.130;-117.188;2022-12-15T06:11:27;29.13;;;11.73;;
37847;SDS011;23688;33.130;-117.188;2022-12-15T06:13:54;21.70;;;11.80;;
37847;SDS011;23688;33.130;-117.188;2022-12-15T06:16:23;21.60;;;10.93;;
37847;SDS011;23688;33.130;-117.188;2022-12-15T06:18:53;24.63;;;11.63;;
37847;SDS011;23688;33.130;-117.188;2022-12-15T06:21:23;21.33;;;10.70;;
37847;SDS011;23688;33.130;-117.188;2022-12-15T06:23:54;23.13;;;10.93;;
37847;SDS011;23688;33.130;-117.188;2022-12-15T06:28:58;25.95;;;14.07;;
37847;SDS011;23688;33.130;-117.188;2022-12-15T06:31:29;23.35;;;12.60;;
37847;SDS011;23688;33.130;-117.188;2022-12-15T06:33:56;27.60;;;13.43;;
37847;SDS011;23688;33.130;-117.188;2022-12-15T06:36:23;18.15;;;10.75;;
37847;SDS011;23688;33.130;-117.188;2022-12-15T06:38:50;20.75;;;12.75;;
37847;SDS011;23688;33.130;-117.188;2022-12-15T06:41:18;27.48;;;14.15;;
37847;SDS011;23688;33.130;-117.188;2022-12-15T06:43:49;24.77;;;14.30;;
37847;SDS011;23688;33.130;-117.188;2022-12-15T06:46:17;24.02;;;14.77;;
37847;SDS011;23688;33.130;-117.188;2022-12-15T06:48:45;23.23;;;13.70;;
37847;SDS011;23688;33.130;-117.188;2022-12-15T06:51:12;29.55;;;16.88;;
37847;SDS011;23688;33.130;-117.188;2022-12-15T06:53:42;28.33;;;16.30;;
37847;SDS011;23688;33.130;-117.188;2022-12-15T06:58:47;22.08;;;13.20;;
37847;SDS011;23688;33.130;-117.188;2022-12-15T07:01:20;30.88;;;14.68;;
37847;SDS011;23688;33.130;-117.188;2022-12-15T07:03:49;24.77;;;15.50;;
37847;SDS011;23688;33.130;-117.188;2022-12-15T07:06:18;27.23;;;16.00;;
37847;SDS011;23688;33.130;-117.188;2022-12-15T07:08:50;28.10;;;16.17;;
37847;SDS011;23688;33.130;-117.188;2022-12-15T07:11:18;30.23;;;16.40;;
37847;SDS011;23688;33.130;-117.188;2022-12-15T07:13:49;29.75;;;15.75;;
37847;SDS011;23688;33.130;-117.188;2022-12-15T07:16:16;23.40;;;13.52;;
37847;SDS011;23688;33.130;-117.188;2022-12-15T07:18:43;22.38;;;12.45;;
37847;SDS011;23688;33.130;-117.188;2022-12-15T07:21:10;23.02;;;11.40;;
37847;SDS011;23688;33.130;-117.188;2022-12-15T07:23:36;21.55;;;11.02;;
37847;SDS011;23688;33.130;-117.188;2022-12-15T07:26:03;22.70;;;10.05;;
37847;SDS011;23688;33.130;-117.188;2022-12-15T07:28:34;21.27;;;10.40;;
37847;SDS011;23688;33.130;-117.188;2022-12-15T07:33:33;22.27;;;10.95;;
37847;SDS011;23688;33.130;-117.188;2022-12-15T07:36:02;26.10;;;13.00;;
37847;SDS011;23688;33.130;-117.188;2022-12-15T07:38:30;23.15;;;11.02;;
37847;SDS011;23688;33.130;-117.188;2022-12-15T07:41:00;22.08;;;11.15;;
37847;SDS011;23688;33.130;-117.188;2022-12-15T07:43:27;22.42;;;10.57;;
37847;SDS011;23688;33.130;-117.188;2022-12-15T07:45:57;25.13;;;11.50;;
37847;SDS011;23688;33.130;-117.188;2022-12-15T07:48:24;21.75;;;11.60;;
37847;SDS011;23688;33.130;-117.188;2022-12-15T07:50:53;18.80;;;11.50;;
37847;SDS011;23688;33.130;-117.188;2022-12-15T07:53:23;29.38;;;11.57;;
37847;SDS011;23688;33.130;-117.188;2022-12-15T07:55:54;22.25;;;12.30;;
37847;SDS011;23688;33.130;-117.188;2022-12-15T07:58:23;25.20;;;13.20;;
37847;SDS011;23688;33.130;-117.188;2022-12-15T08:00:50;27.08;;;13.32;;
37847;SDS011;23688;33.130;-117.188;2022-12-15T08:03:17;21.85;;;11.75;;
37847;SDS011;23688;33.130;-117.188;2022-12-15T08:05:44;28.77;;;13.85;;
37847;SDS011;23688;33.130;-117.188;2022-12-15T08:08:10;26.38;;;16.55;;
37847;SDS011;23688;33.130;-117.188;2022-12-15T08:10:39;23.63;;;14.85;;
37847;SDS011;23688;33.130;-117.188;2022-12-15T08:13:06;30.02;;;15.18;;
37847;SDS011;23688;33.130;-117.188;2022-12-15T08:15:36;24.50;;;15.10;;
37847;SDS011;23688;33.130;-117.188;2022-12-15T08:18:03;26.05;;;13.63;;
37847;SDS011;23688;33.130;-117.188;2022-12-15T08:20:30;26.05;;;14.50;;
37847;SDS011;23688;33.130;-117.188;2022-12-15T08:22:57;24.15;;;14.25;;
37847;SDS011;23688;33.130;-117.188;2022-12-15T08:25:24;31.90;;;14.93;;
37847;SDS011;23688;33.130;-117.188;2022-12-15T08:27:55;26.63;;;14.43;;
37847;SDS011;23688;33.130;-117.188;2022-12-15T08:30:22;23.92;;;14.90;;
37847;SDS011;23688;33.130;-117.188;2022-12-15T08:32:49;26.65;;;14.93;;
37847;SDS011;23688;33.130;-117.188;2022-12-15T08:35:15;28.00;;;15.30;;
37847;SDS011;23688;33.130;-117.188;2022-12-15T08:37:42;25.08;;;14.30;;
37847;SDS011;23688;33.130;-117.188;2022-12-15T08:40:09;29.05;;;15.40;;
37847;SDS011;23688;33.130;-117.188;2022-12-15T08:42:36;27.67;;;14.75;;
37847;SDS011;23688;33.130;-117.188;2022-12-15T08:45:03;22.83;;;14.65;;
37847;SDS011;23688;33.130;-117.188;2022-12-15T08:47:29;26.35;;;14.15;;
37847;SDS011;23688;33.130;-117.188;2022-12-15T08:49:56;23.40;;;13.40;;
37847;SDS011;23688;33.130;-117.188;2022-12-15T08:52:22;24.23;;;12.88;;
37847;SDS011;23688;33.130;-117.188;2022-12-15T08:54:49;23.25;;;13.15;;
37847;SDS011;23688;33.130;-117.188;2022-12-15T08:57:15;21.67;;;13.20;;
37847;SDS011;23688;33.130;-117.188;2022-12-15T08:59:41;21.70;;;12.25;;
37847;SDS011;23688;33.130;-117.188;2022-12-15T09:02:08;22.35;;;12.70;;
37847;SDS011;23688;33.130;-117.188;2022-12-15T09:04:37;19.60;;;12.50;;
37847;SDS011;23688;33.130;-117.188;2022-12-15T09:07:03;18.60;;;11.88;;
37847;SDS011;23688;33.130;-117.188;2022-12-15T09:09:29;20.67;;;11.88;;
37847;SDS011;23688;33.130;-117.188;2022-12-15T09:11:55;23.05;;;11.88;;
37847;SDS011;23688;33.130;-117.188;2022-12-15T09:14:22;23.30;;;11.48;;
37847;SDS011;23688;33.130;-117.188;2022-12-15T09:16:48;28.90;;;12.20;;
37847;SDS011;23688;33.130;-117.188;2022-12-15T09:19:14;18.70;;;11.57;;
37847;SDS011;23688;33.130;-117.188;2022-12-15T09:21:41;22.42;;;12.10;;
37847;SDS011;23688;33.130;-117.188;2022-12-15T09:24:11;23.13;;;11.32;;
37847;SDS011;23688;33.130;-117.188;2022-12-15T09:26:38;24.35;;;12.30;;
37847;SDS011;23688;33.130;-117.188;2022-12-15T09:29:09;18.52;;;13.90;;
37847;SDS011;23688;33.130;-117.188;2022-12-15T09:31:37;27.00;;;11.90;;
37847;SDS011;23688;33.130;-117.188;2022-12-15T09:34:04;25.73;;;11.10;;
37847;SDS011;23688;33.130;-117.188;2022-12-15T09:36:34;25.80;;;11.82;;
37847;SDS011;23688;33.130;-117.188;2022-12-15T09:39:01;20.63;;;12.13;;
37847;SDS011;23688;33.130;-117.188;2022-12-15T09:41:31;25.70;;;13.68;;
37847;SDS011;23688;33.130;-117.188;2022-12-15T09:49:33;22.98;;;13.60;;
37847;SDS011;23688;33.130;-117.188;2022-12-15T09:52:13;22.10;;;12.90;;
37847;SDS011;23688;33.130;-117.188;2022-12-15T09:54:45;31.52;;;13.10;;
37847;SDS011;23688;33.130;-117.188;2022-12-15T10:00:07;23.45;;;12.13;;
37847;SDS011;23688;33.130;-117.188;2022-12-15T10:05:55;22.45;;;12.13;;
37847;SDS011;23688;33.130;-117.188;2022-12-15T10:08:36;22.60;;;11.45;;
37847;SDS011;23688;33.130;-117.188;2022-12-15T10:11:17;16.58;;;10.82;;
37847;SDS011;23688;33.130;-117.188;2022-12-15T10:16:57;21.25;;;13.00;;
37847;SDS011;23688;33.130;-117.188;2022-12-15T10:19:40;19.35;;;11.05;;
37847;SDS011;23688;33.130;-117.188;2022-12-15T10:22:15;18.75;;;11.10;;
37847;SDS011;23688;33.130;-117.188;2022-12-15T10:24:48;19.33;;;10.40;;
37847;SDS011;23688;33.130;-117.188;2022-12-15T10:30:22;21.67;;;11.02;;
37847;SDS011;23688;33.130;-117.188;2022-12-15T10:32:50;19.50;;;10.00;;
37847;SDS011;23688;33.130;-117.188;2022-12-15T10:35:30;19.75;;;11.10;;
37847;SDS011;23688;33.130;-117.188;2022-12-15T10:38:00;27.52;;;11.73;;
37847;SDS011;23688;33.130;-117.188;2022-12-15T10:40:48;19.38;;;11.63;;
37847;SDS011;23688;33.130;-117.188;2022-12-15T10:46:12;16.65;;;11.45;;
37847;SDS011;23688;33.130;-117.188;2022-12-15T10:48:46;19.23;;;11.43;;
37847;SDS011;23688;33.130;-117.188;2022-12-15T10:51:25;20.98;;;11.50;;
37847;SDS011;23688;33.130;-117.188;2022-12-15T10:54:09;21.73;;;11.23;;
37847;SDS011;23688;33.130;-117.188;2022-12-15T10:59:50;16.75;;;9.63;;
37847;SDS011;23688;33.130;-117.188;2022-12-15T11:05:05;23.90;;;9.80;;
37847;SDS011;23688;33.130;-117.188;2022-12-15T11:07:41;15.93;;;9.30;;
37847;SDS011;23688;33.130;-117.188;2022-12-15T11:10:25;15.63;;;9.55;;
37847;SDS011;23688;33.130;-117.188;2022-12-15T11:13:18;16.27;;;8.90;;
37847;SDS011;23688;33.130;-117.188;2022-12-15T11:15:51;17.10;;;10.20;;
37847;SDS011;23688;33.130;-117.188;2022-12-15T11:18:30;17.30;;;9.93;;
37847;SDS011;23688;33.130;-117.188;2022-12-15T11:28:51;13.40;;;7.82;;
37847;SDS011;23688;33.130;-117.188;2022-12-15T11:31:42;16.58;;;8.35;;
37847;SDS011;23688;33.130;-117.188;2022-12-15T11:34:18;20.73;;;8.77;;
37847;SDS011;23688;33.130;-117.188;2022-12-15T11:39:59;15.75;;;9.68;;
37847;SDS011;23688;33.130;-117.188;2022-12-15T11:45:21;19.75;;;10.55;;
37847;SDS011;23688;33.130;-117.188;2022-12-15T11:50:58;17.90;;;10.05;;
37847;SDS011;23688;33.130;-117.188;2022-12-15T11:53:35;19.80;;;10.20;;
37847;SDS011;23688;33.130;-117.188;2022-12-15T12:02:44;16.48;;;10.10;;
37847;SDS011;23688;33.130;-117.188;2022-12-15T12:08:04;17.55;;;10.07;;
37847;SDS011;23688;33.130;-117.188;2022-12-15T12:18:54;14.25;;;8.20;;
37847;SDS011;23688;33.130;-117.188;2022-12-15T12:21:29;19.65;;;8.48;;
37847;SDS011;23688;33.130;-117.188;2022-12-15T12:24:13;18.30;;;8.20;;
37847;SDS011;23688;33.130;-117.188;2022-12-15T12:26:45;15.75;;;7.57;;
37847;SDS011;23688;33.130;-117.188;2022-12-15T12:29:20;17.08;;;8.55;;
37847;SDS011;23688;33.130;-117.188;2022-12-15T12:40:01;14.52;;;7.43;;
37847;SDS011;23688;33.130;-117.188;2022-12-15T12:42:55;16.73;;;8.57;;
37847;SDS011;23688;33.130;-117.188;2022-12-15T12:45:28;11.32;;;7.15;;
37847;SDS011;23688;33.130;-117.188;2022-12-15T12:48:00;13.73;;;7.97;;
37847;SDS011;23688;33.130;-117.188;2022-12-15T12:50:33;12.32;;;6.93;;
37847;SDS011;23688;33.130;-117.188;2022-12-15T12:53:01;10.48;;;6.90;;
37847;SDS011;23688;33.130;-117.188;2022-12-15T12:55:34;14.10;;;6.90;;
37847;SDS011;23688;33.130;-117.188;2022-12-15T12:58:28;13.55;;;7.93;;
37847;SDS011;23688;33.130;-117.188;2022-12-15T13:01:11;10.80;;;7.68;;
37847;SDS011;23688;33.130;-117.188;2022-12-15T13:11:57;13.25;;;7.75;;
37847;SDS011;23688;33.130;-117.188;2022-12-15T13:14:40;13.73;;;7.28;;
37847;SDS011;23688;33.130;-117.188;2022-12-15T13:22:34;14.27;;;7.13;;
37847;SDS011;23688;33.130;-117.188;2022-12-15T13:27:58;12.73;;;8.05;;
37847;SDS011;23688;33.130;-117.188;2022-12-15T13:32:53;17.33;;;8.10;;
37847;SDS011;23688;33.130;-117.188;2022-12-15T13:35:37;17.27;;;8.00;;
37847;SDS011;23688;33.130;-117.188;2022-12-15T13:38:07;16.80;;;8.48;;
37847;SDS011;23688;33.130;-117.188;2022-12-15T13:40:52;13.82;;;8.40;;
37847;SDS011;23688;33.130;-117.188;2022-12-15T13:43:32;17.17;;;8.52;;
37847;SDS011;23688;33.130;-117.188;2022-12-15T13:46:19;22.80;;;8.13;;
37847;SDS011;23688;33.130;-117.188;2022-12-15T13:48:50;20.33;;;9.45;;
37847;SDS011;23688;33.130;-117.188;2022-12-15T13:51:32;16.85;;;7.95;;
37847;SDS011;23688;33.130;-117.188;2022-12-15T13:56:50;16.27;;;9.13;;
37847;SDS011;23688;33.130;-117.188;2022-12-15T14:07:46;18.45;;;7.50;;
37847;SDS011;23688;33.130;-117.188;2022-12-15T14:16:06;13.77;;;7.33;;
37847;SDS011;23688;33.130;-117.188;2022-12-15T14:18:43;12.80;;;7.22;;
37847;SDS011;23688;33.130;-117.188;2022-12-15T14:21:20;12.57;;;7.18;;
37847;SDS011;23688;33.130;-117.188;2022-12-15T14:23:48;16.55;;;7.30;;
37847;SDS011;23688;33.130;-117.188;2022-12-15T14:26:14;10.88;;;6.50;;
37847;SDS011;23688;33.130;-117.188;2022-12-15T14:28:42;12.43;;;7.53;;
37847;SDS011;23688;33.130;-117.188;2022-12-15T14:33:42;19.33;;;7.95;;
37847;SDS011;23688;33.130;-117.188;2022-12-15T14:36:11;11.93;;;7.47;;
37847;SDS011;23688;33.130;-117.188;2022-12-15T14:38:44;16.13;;;7.50;;
37847;SDS011;23688;33.130;-117.188;2022-12-15T14:41:16;18.58;;;7.72;;
37847;SDS011;23688;33.130;-117.188;2022-12-15T14:43:46;16.80;;;7.32;;
37847;SDS011;23688;33.130;-117.188;2022-12-15T14:46:15;18.13;;;7.68;;
37847;SDS011;23688;33.130;-117.188;2022-12-15T14:48:58;18.15;;;7.63;;
37847;SDS011;23688;33.130;-117.188;2022-12-15T14:51:40;14.57;;;7.50;;
37847;SDS011;23688;33.130;-117.188;2022-12-15T14:57:01;12.52;;;6.47;;
37847;SDS011;23688;33.130;-117.188;2022-12-15T14:59:40;12.68;;;6.07;;
37847;SDS011;23688;33.130;-117.188;2022-12-15T15:02:20;24.33;;;7.85;;
37847;SDS011;23688;33.130;-117.188;2022-12-15T15:04:59;13.38;;;7.22;;
37847;SDS011;23688;33.130;-117.188;2022-12-15T15:07:31;14.25;;;7.43;;
37847;SDS011;23688;33.130;-117.188;2022-12-15T15:09:59;22.17;;;6.78;;
37847;SDS011;23688;33.130;-117.188;2022-12-15T15:15:17;13.18;;;6.80;;
37847;SDS011;23688;33.130;-117.188;2022-12-15T15:17:53;14.77;;;6.40;;
37847;SDS011;23688;33.130;-117.188;2022-12-15T15:20:29;16.90;;;6.97;;
37847;SDS011;23688;33.130;-117.188;2022-12-15T15:28:25;14.82;;;7.40;;
37847;SDS011;23688;33.130;-117.188;2022-12-15T15:30:56;10.13;;;6.32;;
37847;SDS011;23688;33.130;-117.188;2022-12-15T15:33:29;13.98;;;6.72;;
37847;SDS011;23688;33.130;-117.188;2022-12-15T15:35:57;16.27;;;6.68;;
37847;SDS011;23688;33.130;-117.188;2022-12-15T15:38:37;14.52;;;6.40;;
37847;SDS011;23688;33.130;-117.188;2022-12-15T15:41:14;13.40;;;6.63;;
37847;SDS011;23688;33.130;-117.188;2022-12-15T15:43:41;12.45;;;6.10;;
37847;SDS011;23688;33.130;-117.188;2022-12-15T15:46:12;11.75;;;6.03;;
37847;SDS011;23688;33.130;-117.188;2022-12-15T15:49:00;11.02;;;6.60;;
37847;SDS011;23688;33.130;-117.188;2022-12-15T15:51:31;15.52;;;6.63;;
37847;SDS011;23688;33.130;-117.188;2022-12-15T15:54:01;14.48;;;7.55;;
37847;SDS011;23688;33.130;-117.188;2022-12-15T15:56:32;20.67;;;7.82;;
37847;SDS011;23688;33.130;-117.188;2022-12-15T15:59:04;20.38;;;7.10;;
37847;SDS011;23688;33.130;-117.188;2022-12-15T16:01:38;20.70;;;7.40;;
37847;SDS011;23688;33.130;-117.188;2022-12-15T16:04:04;32.63;;;7.07;;
37847;SDS011;23688;33.130;-117.188;2022-12-15T16:06:31;17.20;;;7.60;;
37847;SDS011;23688;33.130;-117.188;2022-12-15T16:08:57;26.70;;;8.00;;
37847;SDS011;23688;33.130;-117.188;2022-12-15T16:11:24;18.48;;;6.90;;
37847;SDS011;23688;33.130;-117.188;2022-12-15T16:13:53;18.65;;;6.88;;
37847;SDS011;23688;33.130;-117.188;2022-12-15T16:16:27;14.35;;;6.53;;
37847;SDS011;23688;33.130;-117.188;2022-12-15T16:18:56;23.50;;;7.22;;
37847;SDS011;23688;33.130;-117.188;2022-12-15T16:21:24;13.77;;;6.93;;
37847;SDS011;23688;33.130;-117.188;2022-12-15T16:23:53;23.67;;;7.35;;
37847;SDS011;23688;33.130;-117.188;2022-12-15T16:26:30;27.25;;;8.45;;
37847;SDS011;23688;33.130;-117.188;2022-12-15T16:28:57;22.48;;;8.32;;
37847;SDS011;23688;33.130;-117.188;2022-12-15T16:31:31;26.95;;;8.90;;
37847;SDS011;23688;33.130;-117.188;2022-12-15T16:34:03;31.38;;;8.40;;
37847;SDS011;23688;33.130;-117.188;2022-12-15T16:36:32;21.40;;;8.13;;
37847;SDS011;23688;33.130;-117.188;2022-12-15T16:38:59;18.83;;;7.40;;
37847;SDS011;23688;33.130;-117.188;2022-12-15T16:41:26;15.70;;;6.78;;
37847;SDS011;23688;33.130;-117.188;2022-12-15T16:43:52;18.10;;;7.93;;
37847;SDS011;23688;33.130;-117.188;2022-12-15T16:46:18;23.58;;;8.02;;
37847;SDS011;23688;33.130;-117.188;2022-12-15T16:48:45;22.98;;;8.13;;
37847;SDS011;23688;33.130;-117.188;2022-12-15T16:54:16;34.25;;;8.85;;
37847;SDS011;23688;33.130;-117.188;2022-12-15T16:56:45;25.73;;;8.45;;
37847;SDS011;23688;33.130;-117.188;2022-12-15T16:59:19;25.08;;;8.45;;
37847;SDS011;23688;33.130;-117.188;2022-12-15T17:01:46;21.17;;;7.82;;
37847;SDS011;23688;33.130;-117.188;2022-12-15T17:04:13;19.90;;;8.38;;
37847;SDS011;23688;33.130;-117.188;2022-12-15T17:06:40;13.57;;;7.40;;